createdAt,value
2022-09-20T00:00:37.721Z,11.78
2022-09-20T00:02:59.160Z,11.81
2022-09-20T00:05:20.612Z,11.77
2022-09-20T00:07:45.205Z,11.62
2022-09-20T00:10:06.839Z,11.42
2022-09-20T00:12:28.258Z,11.24
2022-09-20T00:14:49.686Z,11.23
2022-09-20T00:17:11.256Z,11.21
2022-09-20T00:19:32.716Z,11.17
2022-09-20T00:21:54.143Z,11.24
2022-09-20T00:24:16.112Z,11.27
2022-09-20T00:26:38.084Z,11.13
2022-09-20T00:29:00.148Z,10.78
2022-09-20T00:31:21.684Z,10.60
2022-09-20T00:34:02.480Z,10.51
2022-09-20T00:36:24.636Z,10.50
2022-09-20T00:38:46.210Z,10.43
2022-09-20T00:41:08.981Z,10.37
2022-09-20T00:43:45.575Z,10.35
2022-09-20T00:46:32.903Z,10.37
2022-09-20T00:48:59.628Z,10.27
2022-09-20T00:51:28.622Z,10.29
2022-09-20T00:53:51.282Z,10.27
2022-09-20T00:56:20.235Z,10.23
2022-09-20T00:58:50.398Z,10.19
2022-09-20T01:01:12.754Z,10.23
2022-09-20T01:03:38.133Z,10.18
2022-09-20T01:06:04.078Z,10.26
2022-09-20T01:08:25.756Z,10.29
2022-09-20T01:10:47.356Z,10.26
2022-09-20T01:13:08.776Z,10.20
2022-09-20T01:15:31.777Z,10.16
2022-09-20T01:17:55.632Z,10.11
2022-09-20T01:20:26.144Z,10.25
2022-09-20T01:22:47.458Z,10.13
2022-09-20T01:25:30.637Z,10.14
2022-09-20T01:27:53.920Z,10.13
2022-09-20T01:30:19.214Z,10.15
2022-09-20T01:33:02.795Z,10.17
2022-09-20T01:35:25.771Z,10.24
2022-09-20T01:38:12.585Z,10.17
2022-09-20T01:41:03.306Z,10.27
2022-09-20T01:43:52.997Z,10.26
2022-09-20T01:46:32.566Z,10.25
2022-09-20T01:49:06.149Z,10.27
2022-09-20T01:51:27.635Z,10.28
2022-09-20T01:53:59.570Z,10.30
2022-09-20T01:56:39.214Z,10.25
2022-09-20T01:59:23.185Z,10.26
2022-09-20T02:01:54.201Z,10.20
2022-09-20T02:04:52.923Z,10.16
2022-09-20T02:07:49.097Z,10.17
2022-09-20T02:10:41.861Z,10.20
2022-09-20T02:13:07.565Z,10.20
2022-09-20T02:15:47.864Z,10.19
2022-09-20T02:18:18.287Z,10.11
2022-09-20T02:21:00.702Z,10.13
2022-09-20T02:23:33.693Z,10.24
2022-09-20T02:25:59.873Z,10.33
2022-09-20T02:28:42.732Z,10.40
2022-09-20T02:31:28.853Z,10.48
2022-09-20T02:34:02.314Z,10.51
2022-09-20T02:36:47.750Z,10.36
2022-09-20T02:39:31.902Z,10.49
2022-09-20T02:42:37.029Z,10.42
2022-09-20T02:45:08.489Z,10.39
2022-09-20T02:47:37.324Z,10.45
2022-09-20T02:50:40.958Z,10.47
2022-09-20T02:53:11.227Z,10.47
2022-09-20T02:55:32.605Z,10.50
2022-09-20T02:58:12.491Z,10.58
2022-09-20T03:00:48.388Z,10.64
2022-09-20T03:03:31.802Z,10.52
2022-09-20T03:06:24.377Z,10.62
2022-09-20T03:08:58.129Z,10.54
2022-09-20T03:11:41.170Z,10.53
2022-09-20T03:14:22.988Z,10.50
2022-09-20T03:17:04.482Z,10.54
2022-09-20T03:19:38.223Z,10.59
2022-09-20T03:22:11.073Z,10.52
2022-09-20T03:24:44.587Z,10.62
2022-09-20T03:27:15.673Z,10.57
2022-09-20T03:29:59.467Z,10.44
2022-09-20T03:32:33.077Z,10.45
2022-09-20T03:35:16.332Z,10.54
2022-09-20T03:38:02.665Z,10.49
2022-09-20T03:41:08.775Z,10.39
2022-09-20T03:43:36.247Z,10.40
2022-09-20T03:46:26.993Z,10.35
2022-09-20T03:48:57.179Z,10.38
2022-09-20T03:51:47.937Z,10.53
2022-09-20T03:54:37.104Z,10.58
2022-09-20T03:57:23.679Z,10.62
2022-09-20T03:59:54.228Z,10.58
2022-09-20T04:02:34.954Z,10.59
2022-09-20T04:05:01.504Z,10.42
2022-09-20T04:07:53.614Z,10.34
2022-09-20T04:10:40.816Z,10.38
2022-09-20T04:13:40.919Z,10.39
2022-09-20T04:16:14.984Z,10.29
2022-09-20T04:18:56.728Z,10.32
2022-09-20T04:21:51.628Z,10.44
2022-09-20T04:24:28.268Z,10.37
2022-09-20T04:26:56.843Z,10.39
2022-09-20T04:29:40.766Z,10.30
2022-09-20T04:32:19.507Z,10.07
2022-09-20T04:35:06.296Z,10.12
2022-09-20T04:37:33.138Z,10.23
2022-09-20T04:40:03.509Z,10.17
2022-09-20T04:43:08.063Z,10.19
2022-09-20T04:45:41.616Z,10.09
2022-09-20T04:48:25.754Z,10.10
2022-09-20T04:51:28.154Z,10.20
2022-09-20T04:54:19.900Z,10.25
2022-09-20T04:57:06.565Z,10.25
2022-09-20T05:00:01.359Z,10.14
2022-09-20T05:02:40.108Z,10.15
2022-09-20T05:05:32.746Z,10.23
2022-09-20T05:08:31.667Z,10.23
2022-09-20T05:10:55.704Z,10.34
2022-09-20T05:13:35.881Z,10.31
2022-09-20T05:16:08.242Z,10.35
2022-09-20T05:18:51.067Z,10.30
2022-09-20T05:21:34.373Z,10.40
2022-09-20T05:24:32.117Z,10.40
2022-09-20T05:27:33.528Z,10.37
2022-09-20T05:30:12.893Z,10.25
2022-09-20T05:32:48.594Z,10.22
2022-09-20T05:35:28.373Z,10.17
2022-09-20T05:38:02.173Z,10.20
2022-09-20T05:41:00.380Z,10.17
2022-09-20T05:43:32.096Z,10.26
2022-09-20T05:46:14.736Z,10.25
2022-09-20T05:48:44.283Z,10.22
2022-09-20T05:51:08.753Z,10.18
2022-09-20T05:53:50.836Z,10.25
2022-09-20T05:56:47.573Z,10.21
2022-09-20T05:59:30.199Z,10.26
2022-09-20T06:02:09.432Z,10.14
2022-09-20T06:04:50.497Z,10.06
2022-09-20T06:07:32.272Z,10.03
2022-09-20T06:10:19.930Z,10.03
2022-09-20T06:13:11.702Z,10.08
2022-09-20T06:15:44.835Z,10.04
2022-09-20T06:18:22.149Z,9.97
2022-09-20T06:20:51.904Z,10.02
2022-09-20T06:23:14.559Z,10.11
2022-09-20T06:25:45.200Z,10.25
2022-09-20T06:28:18.818Z,10.28
2022-09-20T06:30:45.739Z,10.42
2022-09-20T06:33:07.123Z,10.56
2022-09-20T06:35:37.102Z,10.58
2022-09-20T06:38:41.760Z,10.81
2022-09-20T06:41:22.393Z,10.87
2022-09-20T06:43:43.870Z,11.04
2022-09-20T06:46:05.562Z,11.02
2022-09-20T06:48:27.244Z,11.03
2022-09-20T06:50:48.682Z,10.94
2022-09-20T06:53:17.741Z,10.86
2022-09-20T06:55:40.952Z,10.96
2022-09-20T06:58:02.486Z,10.82
2022-09-20T07:00:24.468Z,11.00
2022-09-20T07:02:46.695Z,11.07
2022-09-20T07:05:14.455Z,11.10
2022-09-20T07:07:35.909Z,10.85
2022-09-20T07:09:58.507Z,10.90
2022-09-20T07:12:19.996Z,11.06
2022-09-20T07:14:43.057Z,10.98
2022-09-20T07:17:04.814Z,10.94
2022-09-20T07:19:26.251Z,11.08
2022-09-20T07:21:47.673Z,11.19
2022-09-20T07:24:09.091Z,11.14
2022-09-20T07:26:31.307Z,11.15
2022-09-20T07:28:53.578Z,11.33
2022-09-20T07:31:15.981Z,11.59
2022-09-20T07:33:37.479Z,11.62
2022-09-20T07:35:58.889Z,11.69
2022-09-20T07:38:22.068Z,11.82
2022-09-20T07:40:46.178Z,11.88
2022-09-20T07:43:08.048Z,11.77
2022-09-20T07:45:31.181Z,11.82
2022-09-20T07:47:53.413Z,11.69
2022-09-20T07:50:15.063Z,11.68
2022-09-20T07:52:36.511Z,11.53
2022-09-20T07:54:58.009Z,11.66
2022-09-20T07:57:19.429Z,11.79
2022-09-20T07:59:40.838Z,11.97
2022-09-20T08:02:02.368Z,12.14
2022-09-20T08:04:23.814Z,12.28
2022-09-20T08:06:46.384Z,12.40
2022-09-20T08:09:11.057Z,12.59
2022-09-20T08:11:34.370Z,12.38
2022-09-20T08:14:08.147Z,12.28
2022-09-20T08:16:31.837Z,12.51
2022-09-20T08:18:57.228Z,12.75
2022-09-20T08:21:19.231Z,13.23
2022-09-20T08:23:42.718Z,13.27
2022-09-20T08:26:07.718Z,13.32
2022-09-20T08:28:31.513Z,13.41
2022-09-20T08:30:52.949Z,13.28
2022-09-20T08:33:15.148Z,13.45
2022-09-20T08:35:38.125Z,13.52
2022-09-20T08:39:57.338Z,13.53
2022-09-20T08:40:41.823Z,13.67
2022-09-20T08:43:05.530Z,13.67
2022-09-20T08:45:38.297Z,13.51
2022-09-20T08:48:05.627Z,13.34
2022-09-20T08:50:27.498Z,13.33
2022-09-20T08:53:00.039Z,13.33
2022-09-20T08:55:26.175Z,13.14
2022-09-20T08:57:50.619Z,12.83
2022-09-20T09:00:24.614Z,12.69
2022-09-20T09:02:46.321Z,12.38
2022-09-20T09:05:28.523Z,12.08
2022-09-20T09:07:50.185Z,12.03
2022-09-20T09:10:11.777Z,12.19
2022-09-20T09:12:35.322Z,12.16
2022-09-20T09:15:03.785Z,11.79
2022-09-20T09:17:28.247Z,11.81
2022-09-20T09:20:22.384Z,11.71
2022-09-20T09:22:46.084Z,11.68
2022-09-20T09:25:16.886Z,12.07
2022-09-20T09:27:52.390Z,12.31
2022-09-20T09:30:25.110Z,12.47
2022-09-20T09:32:46.656Z,12.71
2022-09-20T09:35:29.354Z,12.80
2022-09-20T09:37:57.116Z,12.93
2022-09-20T09:40:19.390Z,13.18
2022-09-20T09:42:50.148Z,13.36
2022-09-20T09:45:13.431Z,13.66
2022-09-20T09:47:37.523Z,13.72
2022-09-20T09:50:03.696Z,13.83
2022-09-20T09:52:33.277Z,14.00
2022-09-20T09:55:02.785Z,14.08
2022-09-20T09:57:38.388Z,14.36
2022-09-20T10:00:10.571Z,14.70
2022-09-20T10:02:49.532Z,14.78
2022-09-20T10:05:33.007Z,14.71
2022-09-20T10:08:35.306Z,14.77
2022-09-20T10:11:17.645Z,14.89
2022-09-20T10:14:03.503Z,14.97
2022-09-20T10:16:35.152Z,14.98
2022-09-20T10:19:12.641Z,15.22
2022-09-20T10:21:52.216Z,15.25
2022-09-20T10:24:30.816Z,15.49
2022-09-20T10:27:33.677Z,15.76
2022-09-20T10:30:09.605Z,15.68
2022-09-20T10:32:45.812Z,15.45
2022-09-20T10:35:29.388Z,15.59
2022-09-20T10:38:16.649Z,15.74
2022-09-20T10:41:21.486Z,15.78
2022-09-20T10:43:48.715Z,15.53
2022-09-20T10:46:47.684Z,15.39
2022-09-20T10:49:27.027Z,15.22
2022-09-20T10:52:12.126Z,15.52
2022-09-20T10:54:43.622Z,15.53
2022-09-20T10:57:07.776Z,15.52
2022-09-20T10:59:51.317Z,15.44
2022-09-20T11:02:41.564Z,15.52
2022-09-20T11:05:18.968Z,15.84
2022-09-20T11:08:02.309Z,16.17
2022-09-20T11:10:36.195Z,16.57
2022-09-20T11:13:06.348Z,16.67
2022-09-20T11:15:35.169Z,16.55
2022-09-20T11:18:04.683Z,16.73
2022-09-20T11:21:08.083Z,16.81
2022-09-20T11:24:05.447Z,17.15
2022-09-20T11:26:34.889Z,17.41
2022-09-20T11:29:08.259Z,17.47
2022-09-20T11:31:42.522Z,17.61
2022-09-20T11:34:25.907Z,17.53
2022-09-20T11:36:57.627Z,17.09
2022-09-20T11:39:29.464Z,16.92
2022-09-20T11:41:55.031Z,16.94
2022-09-20T11:44:19.861Z,16.69
2022-09-20T11:47:09.547Z,16.53
2022-09-20T11:50:22.051Z,16.28
2022-09-20T11:53:20.281Z,15.88
2022-09-20T11:55:52.369Z,15.69
2022-09-20T11:58:17.178Z,15.74
2022-09-20T12:00:45.033Z,15.65
2022-09-20T12:03:21.557Z,15.80
2022-09-20T12:05:43.771Z,15.64
2022-09-20T12:08:22.149Z,15.68
2022-09-20T12:10:56.373Z,15.73
2022-09-20T12:13:24.413Z,15.66
2022-09-20T12:15:46.402Z,15.48
2022-09-20T12:18:12.482Z,15.29
2022-09-20T12:20:39.926Z,15.15
2022-09-20T12:23:38.882Z,14.71
2022-09-20T12:26:20.774Z,14.50
2022-09-20T12:28:50.059Z,14.19
2022-09-20T12:31:31.777Z,14.15
2022-09-20T12:34:11.960Z,14.14
2022-09-20T12:36:39.252Z,14.25
2022-09-20T12:39:23.342Z,14.62
2022-09-20T12:41:57.550Z,14.52
2022-09-20T12:44:31.098Z,15.54
2022-09-20T12:46:59.510Z,15.88
2022-09-20T12:49:48.522Z,16.07
2022-09-20T12:52:41.708Z,16.21
2022-09-20T12:55:08.960Z,16.38
2022-09-20T12:57:32.963Z,16.39
2022-09-20T13:00:01.287Z,16.42
2022-09-20T13:02:42.623Z,16.31
2022-09-20T13:05:32.185Z,16.02
2022-09-20T13:08:00.366Z,16.05
2022-09-20T13:10:35.800Z,15.84
2022-09-20T13:13:07.582Z,15.41
2022-09-20T13:15:29.595Z,15.66
2022-09-20T13:17:55.052Z,15.82
2022-09-20T13:20:24.414Z,16.10
2022-09-20T13:22:47.220Z,16.39
2022-09-20T13:25:14.325Z,16.46
2022-09-20T13:27:40.197Z,16.70
2022-09-20T13:30:17.472Z,16.48
2022-09-20T13:32:41.761Z,16.55
2022-09-20T13:35:12.173Z,16.94
2022-09-20T13:37:35.007Z,17.30
2022-09-20T13:39:57.322Z,17.88
2022-09-20T13:42:21.668Z,18.60
2022-09-20T13:44:43.545Z,18.39
2022-09-20T13:47:29.443Z,18.42
2022-09-20T13:49:51.192Z,18.00
2022-09-20T13:52:28.129Z,17.70
2022-09-20T13:54:49.579Z,17.08
2022-09-20T13:57:21.299Z,16.68
2022-09-20T13:59:45.505Z,16.44
2022-09-20T14:02:23.086Z,16.27
2022-09-20T14:04:45.084Z,16.15
2022-09-20T14:07:07.238Z,16.12
2022-09-20T14:09:34.006Z,16.14
2022-09-20T14:11:56.268Z,15.92
2022-09-20T14:14:22.169Z,15.94
2022-09-20T14:16:46.714Z,16.22
2022-09-20T14:19:08.513Z,16.35
2022-09-20T14:21:34.411Z,16.94
2022-09-20T14:24:02.196Z,17.05
2022-09-20T14:26:27.885Z,17.14
2022-09-20T14:28:49.389Z,16.80
2022-09-20T14:31:22.032Z,16.80
2022-09-20T14:33:54.910Z,16.92
2022-09-20T14:36:22.027Z,16.58
2022-09-20T14:38:45.731Z,16.51
2022-09-20T14:41:07.279Z,16.65
2022-09-20T14:43:34.842Z,16.60
2022-09-20T14:45:58.982Z,16.77
2022-09-20T14:48:21.423Z,16.63
2022-09-20T14:50:45.464Z,16.63
2022-09-20T14:53:10.800Z,16.44
2022-09-20T14:55:37.366Z,17.79
2022-09-20T14:58:10.980Z,17.97
2022-09-20T15:00:59.109Z,17.99
2022-09-20T15:03:31.081Z,18.01
2022-09-20T15:05:52.535Z,18.05
2022-09-20T15:08:15.492Z,18.70
2022-09-20T15:10:36.911Z,19.22
2022-09-20T15:12:58.520Z,20.38
2022-09-20T15:15:20.022Z,21.29
2022-09-20T15:17:42.634Z,21.98
2022-09-20T15:20:04.437Z,22.24
2022-09-20T15:22:26.522Z,22.46
2022-09-20T15:24:47.931Z,22.81
2022-09-20T15:27:12.144Z,22.15
2022-09-20T15:29:33.679Z,21.87
2022-09-20T15:31:55.309Z,21.36
2022-09-20T15:34:16.861Z,21.17
2022-09-20T15:36:39.698Z,21.43
2022-09-20T15:39:09.299Z,20.72
2022-09-20T15:41:32.319Z,19.73
2022-09-20T15:43:53.824Z,19.11
2022-09-20T15:46:20.280Z,18.48
2022-09-20T15:48:43.308Z,18.25
2022-09-20T15:51:06.957Z,17.88
2022-09-20T15:53:34.315Z,17.85
2022-09-20T15:55:55.860Z,17.67
2022-09-20T15:58:17.665Z,17.56
2022-09-20T16:00:40.530Z,17.26
2022-09-20T16:03:02.007Z,17.05
2022-09-20T16:05:23.860Z,16.71
2022-09-20T16:07:46.413Z,16.51
2022-09-20T16:10:08.397Z,16.26
2022-09-20T16:12:29.841Z,15.99
2022-09-20T16:14:51.655Z,15.80
2022-09-20T16:17:13.226Z,15.73
2022-09-20T16:19:34.621Z,15.52
2022-09-20T16:21:58.502Z,15.33
2022-09-20T16:24:24.654Z,15.20
2022-09-20T16:26:46.902Z,14.58
2022-09-20T16:29:08.564Z,14.33
2022-09-20T16:31:40.338Z,13.98
2022-09-20T16:34:03.814Z,13.70
2022-09-20T16:36:27.406Z,13.58
2022-09-20T16:38:49.192Z,13.52
2022-09-20T16:41:11.707Z,13.55
2022-09-20T16:43:33.791Z,13.56
2022-09-20T16:46:01.479Z,13.52
2022-09-20T16:48:23.006Z,13.60
2022-09-20T16:50:54.233Z,13.70
2022-09-20T16:53:15.681Z,13.62
2022-09-20T16:55:37.095Z,13.82
2022-09-20T16:57:58.523Z,13.76
2022-09-20T17:00:21.892Z,13.86
2022-09-20T17:02:47.733Z,13.90
2022-09-20T17:05:09.588Z,13.64
2022-09-20T17:07:33.811Z,13.58
2022-09-20T17:10:01.212Z,13.77
2022-09-20T17:12:25.067Z,13.86
2022-09-20T17:14:46.493Z,13.98
2022-09-20T17:17:07.919Z,14.02
2022-09-20T17:19:29.372Z,13.84
2022-09-20T17:21:51.210Z,13.88
2022-09-20T17:24:14.126Z,13.91
2022-09-20T17:26:40.900Z,13.96
2022-09-20T17:29:03.862Z,14.01
2022-09-20T17:31:32.257Z,13.95
2022-09-20T17:33:54.220Z,13.85
2022-09-20T17:36:21.444Z,13.82
2022-09-20T17:38:42.931Z,13.75
2022-09-20T17:41:10.637Z,13.75
2022-09-20T17:43:32.171Z,13.71
2022-09-20T17:45:53.648Z,13.66
2022-09-20T17:48:15.118Z,13.71
2022-09-20T17:50:36.580Z,13.71
2022-09-20T17:52:57.993Z,13.74
2022-09-20T17:55:19.837Z,13.75
2022-09-20T17:57:41.279Z,13.77
2022-09-20T18:00:02.814Z,13.77
2022-09-20T18:02:24.257Z,13.82
2022-09-20T18:04:45.673Z,13.82
2022-09-20T18:07:07.106Z,13.77
2022-09-20T18:09:28.534Z,13.79
2022-09-20T18:11:52.754Z,13.73
2022-09-20T18:14:15.165Z,13.69
2022-09-20T18:16:37.686Z,13.64
2022-09-20T18:18:59.869Z,13.66
2022-09-20T18:21:23.727Z,13.54
2022-09-20T18:23:46.363Z,13.48
2022-09-20T18:26:24.668Z,13.44
2022-09-20T18:28:48.840Z,13.38
2022-09-20T18:31:10.512Z,13.33
2022-09-20T18:33:32.162Z,13.31
2022-09-20T18:35:59.718Z,13.18
2022-09-20T18:38:21.592Z,13.06
2022-09-20T18:40:43.892Z,12.87
2022-09-20T18:43:07.861Z,12.93
2022-09-20T18:45:29.280Z,12.97
2022-09-20T18:47:59.586Z,12.93
2022-09-20T18:50:21.444Z,12.94
2022-09-20T18:52:42.872Z,12.98
2022-09-20T18:55:07.135Z,12.90
2022-09-20T18:57:28.747Z,12.81
2022-09-20T18:59:54.675Z,12.79
2022-09-20T19:03:04.770Z,12.77
2022-09-20T19:05:44.055Z,12.71
2022-09-20T19:08:34.378Z,12.70
2022-09-20T19:11:04.217Z,12.67
2022-09-20T19:13:41.697Z,12.53
2022-09-20T19:16:15.477Z,12.47
2022-09-20T19:19:13.459Z,12.26
2022-09-20T19:21:59.061Z,12.27
2022-09-20T19:24:59.204Z,12.19
2022-09-20T19:27:20.979Z,12.12
2022-09-20T19:29:42.879Z,12.04
2022-09-20T19:32:04.818Z,12.05
2022-09-20T19:34:32.036Z,11.94
2022-09-20T19:37:18.692Z,11.93
2022-09-20T19:40:06.635Z,11.84
2022-09-20T19:42:43.063Z,11.79
2022-09-20T19:45:04.522Z,11.76
2022-09-20T19:47:46.515Z,11.70
2022-09-20T19:50:16.181Z,11.64
2022-09-20T19:52:39.393Z,11.56
2022-09-20T19:55:01.164Z,11.58
2022-09-20T19:57:30.863Z,11.51
2022-09-20T19:59:52.550Z,11.33
2022-09-20T20:02:14.192Z,11.27
2022-09-20T20:04:35.823Z,11.19
2022-09-20T20:07:07.149Z,11.17
2022-09-20T20:09:47.139Z,11.15
2022-09-20T20:12:25.594Z,11.12
2022-09-20T20:15:17.006Z,11.08
2022-09-20T20:17:53.784Z,10.99
2022-09-20T20:20:39.675Z,10.92
2022-09-20T20:23:19.240Z,10.87
2022-09-20T20:26:03.082Z,10.75
2022-09-20T20:28:24.720Z,10.67
2022-09-20T20:30:46.159Z,10.53
2022-09-20T20:33:08.125Z,10.58
2022-09-20T20:35:29.553Z,10.55
2022-09-20T20:37:51.079Z,10.59
2022-09-20T20:40:14.048Z,10.58
2022-09-20T20:42:37.063Z,10.22
2022-09-20T20:44:58.868Z,10.14
2022-09-20T20:47:20.281Z,10.14
2022-09-20T20:49:42.326Z,10.17
2022-09-20T20:52:05.146Z,10.17
2022-09-20T20:54:26.682Z,10.27
2022-09-20T20:56:48.122Z,10.33
2022-09-20T20:59:09.582Z,10.05
2022-09-20T21:01:31.955Z,9.88
2022-09-20T21:03:54.872Z,9.75
2022-09-20T21:06:17.136Z,9.65
2022-09-20T21:08:42.358Z,9.74
2022-09-20T21:11:11.555Z,9.69
2022-09-20T21:13:33.007Z,9.71
2022-09-20T21:15:54.441Z,9.66
2022-09-20T21:18:15.942Z,9.47
2022-09-20T21:20:38.421Z,9.45
2022-09-20T21:22:59.833Z,9.55
2022-09-20T21:25:21.269Z,9.57
2022-09-20T21:27:42.741Z,9.54
2022-09-20T21:30:05.104Z,9.55
2022-09-20T21:32:26.537Z,9.55
2022-09-20T21:34:47.962Z,9.55
2022-09-20T21:37:10.567Z,9.54
2022-09-20T21:39:31.986Z,9.53
2022-09-20T21:41:54.250Z,9.53
2022-09-20T21:44:16.257Z,9.49
2022-09-20T21:46:40.343Z,9.30
2022-09-20T21:49:06.760Z,9.13
2022-09-20T21:51:31.280Z,9.12
2022-09-20T21:53:54.332Z,9.09
2022-09-20T21:56:17.591Z,9.10
2022-09-20T21:58:40.181Z,9.10
2022-09-20T22:01:10.047Z,9.02
2022-09-20T22:03:37.510Z,8.95
2022-09-20T22:06:05.283Z,8.97
2022-09-20T22:08:27.377Z,8.81
2022-09-20T22:10:56.845Z,8.87
2022-09-20T22:13:18.290Z,8.89
2022-09-20T22:15:39.745Z,8.90
2022-09-20T22:18:01.257Z,8.85
2022-09-20T22:20:22.705Z,8.86
2022-09-20T22:22:44.144Z,8.90
2022-09-20T22:25:05.989Z,8.89
2022-09-20T22:27:27.419Z,8.83
2022-09-20T22:29:48.842Z,8.86
2022-09-20T22:32:10.305Z,8.82
2022-09-20T22:34:31.742Z,8.60
2022-09-20T22:36:53.859Z,8.53
2022-09-20T22:39:15.930Z,8.42
2022-09-20T22:41:38.491Z,8.32
2022-09-20T22:44:00.045Z,8.43
2022-09-20T22:46:24.151Z,8.38
2022-09-20T22:48:46.060Z,8.41
2022-09-20T22:51:12.880Z,8.46
2022-09-20T22:53:34.834Z,8.39
2022-09-20T22:56:21.871Z,8.43
2022-09-20T22:58:48.435Z,8.41
2022-09-20T23:01:30.971Z,8.25
2022-09-20T23:03:59.425Z,8.28
2022-09-20T23:06:24.473Z,8.23
2022-09-20T23:08:45.915Z,8.25
2022-09-20T23:11:08.067Z,8.12
2022-09-20T23:13:29.700Z,8.07
2022-09-20T23:15:51.113Z,7.98
2022-09-20T23:18:12.538Z,8.01
2022-09-20T23:20:33.958Z,8.03
2022-09-20T23:22:55.389Z,8.00
2022-09-20T23:25:16.916Z,8.02
2022-09-20T23:27:38.396Z,8.09
2022-09-20T23:29:59.805Z,8.06
2022-09-20T23:32:21.232Z,8.10
2022-09-20T23:34:42.664Z,8.10
2022-09-20T23:37:04.093Z,8.10
2022-09-20T23:39:25.535Z,7.94
2022-09-20T23:41:50.913Z,7.93
2022-09-20T23:44:12.806Z,7.96
2022-09-20T23:46:34.618Z,7.91
2022-09-20T23:48:56.087Z,7.98
2022-09-20T23:51:20.501Z,7.97
2022-09-20T23:53:43.078Z,7.90
2022-09-20T23:56:06.184Z,7.82
2022-09-20T23:58:27.722Z,7.76
